Time,TemperatureF,DewpointF,PressureIn,WindDirection,WindDirectionDegrees,WindSpeedMPH,WindSpeedGustMPH,Humidity,HourlyPrecipIn,Conditions,Clouds,dailyrainin,SoftwareType,DateUTC
2013-01-20 00:09:00,27.0,19.3,30.40,NNW,337,8.5,13.6,72,0.00,,,0.00,WUHU21623XXSP,2013-01-20 05:09:00,
2013-01-20 00:59:00,44.2,34.8,29.94,West,270,3.1,3.1,69,0.00,,,0.00,WUHU21623XXSP,2013-01-20 05:59:00,
2013-01-20 01:12:00,27.0,19.3,30.40,NNW,337,8.5,13.6,72,0.00,,,0.00,WUHU21623XXSP,2013-01-20 06:12:00,
2013-01-20 01:27:00,27.0,19.3,30.40,NNW,337,8.5,13.6,72,0.00,,,0.00,WUHU21623XXSP,2013-01-20 06:27:00,
2013-01-20 01:59:00,42.6,33.2,29.98,West,270,5.6,5.6,69,0.00,,,0.00,WUHU21623XXSP,2013-01-20 06:59:00,
2013-01-20 02:12:00,27.0,19.3,30.40,NNW,337,8.5,13.6,72,0.00,,,0.00,WUHU21623XXSP,2013-01-20 07:12:00,
2013-01-20 02:34:00,27.0,19.3,30.40,NNW,337,8.5,13.6,72,0.00,,,0.00,WUHU21623XXSP,2013-01-20 07:34:00,
2013-01-20 02:46:00,27.0,19.3,30.40,NNW,337,8.5,13.6,72,0.00,,,0.00,WUHU21623XXSP,2013-01-20 07:46:00,
2013-01-20 02:59:00,38.8,25.7,30.02,West,270,6.9,6.9,59,0.00,,,0.00,WUHU21623XXSP,2013-01-20 07:59:00,
2013-01-20 03:18:00,27.0,19.3,30.40,NNW,337,8.5,13.6,72,0.00,,,0.00,WUHU21623XXSP,2013-01-20 08:18:00,
2013-01-20 03:50:00,27.0,19.3,30.40,NNW,337,8.5,13.6,72,0.00,,,0.00,WUHU21623XXSP,2013-01-20 08:50:00,
2013-01-20 03:59:00,34.2,20.6,30.07,NW,315,18.8,18.8,57,0.00,,,0.00,WUHU21623XXSP,2013-01-20 08:59:00,
2013-01-20 04:56:00,27.0,19.3,30.40,NNW,337,8.5,13.6,72,0.00,,,0.00,WUHU21623XXSP,2013-01-20 09:56:00,
2013-01-20 04:59:00,30.7,18.1,30.09,West,270,10.7,10.7,59,0.00,,,0.00,WUHU21623XXSP,2013-01-20 09:59:00,
2013-01-20 05:50:00,27.0,19.3,30.40,NNW,337,8.5,13.6,72,0.00,,,0.00,WUHU21623XXSP,2013-01-20 10:50:00,
2013-01-20 05:59:00,28.2,15.7,30.11,NW,315,12.8,12.8,59,0.00,,,0.00,WUHU21623XXSP,2013-01-20 10:59:00,
2013-01-20 06:41:00,27.0,19.3,30.40,NNW,337,8.5,13.6,72,0.00,,,0.00,WUHU21623XXSP,2013-01-20 11:41:00,
2013-01-20 06:59:00,25.7,13.8,30.15,NW,315,19.0,19.0,60,0.00,,,0.00,WUHU21623XXSP,2013-01-20 11:59:00,
2013-01-20 07:18:00,27.0,19.3,30.40,NNW,337,8.5,13.6,72,0.00,,,0.00,WUHU21623XXSP,2013-01-20 12:18:00,
2013-01-20 07:30:00,27.0,19.3,30.40,NNW,337,8.5,13.6,72,0.00,,,0.00,WUHU21623XXSP,2013-01-20 12:30:00,
2013-01-20 07:59:00,23.7,13.0,30.19,NW,315,13.9,13.9,63,0.00,,,0.00,WUHU21623XXSP,2013-01-20 12:59:00,
2013-01-20 08:03:00,27.0,19.3,30.40,NNW,337,8.5,13.6,72,0.00,,,0.00,WUHU21623XXSP,2013-01-20 13:03:00,
2013-01-20 08:09:00,27.0,19.3,30.40,NNW,337,8.5,13.6,72,0.00,,,0.00,WUHU21623XXSP,2013-01-20 13:09:00,
2013-01-20 08:19:00,27.0,19.3,30.40,NNW,337,8.5,13.6,72,0.00,,,0.00,WUHU21623XXSP,2013-01-20 13:19:00,
2013-01-20 08:30:00,27.0,19.3,30.40,NNW,337,8.5,13.6,72,0.00,,,0.00,WUHU21623XXSP,2013-01-20 13:30:00,
2013-01-20 08:59:00,22.8,13.2,30.23,NW,315,9.6,9.6,66,0.00,,,0.00,WUHU21623XXSP,2013-01-20 13:59:00,
2013-01-20 09:44:00,27.0,19.3,30.40,NNW,337,8.5,13.6,72,0.00,,,0.00,WUHU21623XXSP,2013-01-20 14:44:00,
2013-01-20 09:59:00,27.0,19.3,30.40,NNW,337,8.5,13.6,72,0.00,,,0.00,WUHU21623XXSP,2013-01-20 14:59:00,
2013-01-20 10:59:00,27.0,19.3,30.40,NNW,337,8.5,13.6,72,0.00,,,0.00,WUHU21623XXSP,2013-01-20 15:59:00,
2013-01-20 11:06:00,27.0,19.3,30.40,NNW,337,8.5,13.6,72,0.00,,,0.00,WUHU21623XXSP,2013-01-20 16:06:00,
2013-01-20 11:11:00,27.0,19.3,30.40,NNW,337,8.5,13.6,72,0.00,,,0.00,WUHU21623XXSP,2013-01-20 16:11:00,
2013-01-20 11:31:00,27.0,19.3,30.40,NNW,337,8.5,13.6,72,0.00,,,0.00,WUHU21623XXSP,2013-01-20 16:31:00,
2013-01-20 11:48:00,27.0,19.3,30.40,NNW,337,8.5,13.6,72,0.00,,,0.00,WUHU21623XXSP,2013-01-20 16:48:00,
2013-01-20 11:59:00,24.1,13.0,30.29,WNW,293,7.6,7.6,62,0.00,,,0.00,WUHU21623XXSP,2013-01-20 16:59:00,
2013-01-20 12:59:00,26.6,13.8,30.26,NNW,338,8.3,8.3,58,0.00,,,0.00,WUHU21623XXSP,2013-01-20 17:59:00,
2013-01-20 13:00:00,27.0,19.3,30.40,NNW,337,8.5,13.6,72,0.00,,,0.00,WUHU21623XXSP,2013-01-20 18:00:00,
2013-01-20 13:20:00,27.0,19.3,30.40,NNW,337,8.5,13.6,72,0.00,,,0.00,WUHU21623XXSP,2013-01-20 18:20:00,
2013-01-20 13:47:00,27.0,19.3,30.40,NNW,337,8.5,13.6,72,0.00,,,0.00,WUHU21623XXSP,2013-01-20 18:47:00,
2013-01-20 13:59:00,27.3,14.1,30.24,WNW,293,6.0,6.0,57,0.00,,,0.00,WUHU21623XXSP,2013-01-20 18:59:00,
2013-01-20 14:09:00,27.0,19.3,30.40,NNW,337,8.5,13.6,72,0.00,,,0.00,WUHU21623XXSP,2013-01-20 19:09:00,
2013-01-20 14:42:00,27.0,19.3,30.40,NNW,337,8.5,13.6,72,0.00,,,0.00,WUHU21623XXSP,2013-01-20 19:42:00,
2013-01-20 14:59:00,29.5,15.7,30.24,West,270,2.9,2.9,56,0.00,,,0.00,WUHU21623XXSP,2013-01-20 19:59:00,
2013-01-20 15:33:00,27.0,19.3,30.40,NNW,337,8.5,13.6,72,0.00,,,0.00,WUHU21623XXSP,2013-01-20 20:33:00,
2013-01-20 15:59:00,26.8,14.4,30.25,NW,315,10.7,10.7,59,0.00,,,0.00,WUHU21623XXSP,2013-01-20 20:59:00,
2013-01-20 16:00:00,27.0,19.3,30.40,NNW,337,8.5,13.6,72,0.00,,,0.00,WUHU21623XXSP,2013-01-20 21:00:00,
2013-01-20 16:59:00,25.9,14.0,30.26,West,270,5.4,5.4,60,0.00,,,0.00,WUHU21623XXSP,2013-01-20 21:59:00,
2013-01-20 17:21:00,27.0,19.3,30.40,NNW,337,8.5,13.6,72,0.00,,,0.00,WUHU21623XXSP,2013-01-20 22:21:00,
2013-01-20 17:44:00,27.0,19.3,30.40,NNW,337,8.5,13.6,72,0.00,,,0.00,WUHU21623XXSP,2013-01-20 22:44:00,
2013-01-20 17:56:00,27.0,19.3,30.40,NNW,337,8.5,13.6,72,0.00,,,0.00,WUHU21623XXSP,2013-01-20 22:56:00,
2013-01-20 17:59:00,25.0,13.1,30.26,NW,315,6.9,6.9,60,0.00,,,0.00,WUHU21623XXSP,2013-01-20 22:59:00,
2013-01-20 18:05:00,27.0,19.3,30.40,NNW,337,8.5,13.6,72,0.00,,,0.00,WUHU21623XXSP,2013-01-20 23:05:00,
2013-01-20 18:59:00,24.4,12.9,30.26,WNW,293,6.5,6.5,61,0.00,,,0.00,WUHU21623XXSP,2013-01-20 23:59:00,
2013-01-20 19:15:00,27.0,19.3,30.40,NNW,337,8.5,13.6,72,0.00,,,0.00,WUHU21623XXSP,2013-01-21 00:15:00,
2013-01-20 19:45:00,27.0,19.3,30.40,NNW,337,8.5,13.6,72,0.00,,,0.00,WUHU21623XXSP,2013-01-21 00:45:00,
2013-01-20 19:59:00,23.9,13.5,30.25,West,270,2.0,2.0,64,0.00,,,0.00,WUHU21623XXSP,2013-01-21 00:59:00,
2013-01-20 20:10:00,27.0,19.3,30.40,NNW,337,8.5,13.6,72,0.00,,,0.00,WUHU21623XXSP,2013-01-21 01:10:00,
2013-01-20 20:31:00,27.0,19.3,30.40,NNW,337,8.5,13.6,72,0.00,,,0.00,WUHU21623XXSP,2013-01-21 01:31:00,
2013-01-20 20:59:00,23.9,13.9,30.24,WNW,293,2.9,2.9,65,0.00,,,0.00,WUHU21623XXSP,2013-01-21 01:59:00,
2013-01-20 21:59:00,23.7,13.4,30.23,NW,315,9.8,9.8,64,0.00,,,0.00,WUHU21623XXSP,2013-01-21 02:59:00,
2013-01-20 22:59:00,23.7,13.7,30.22,NW,315,6.5,6.5,65,0.00,,,0.00,WUHU21623XXSP,2013-01-21 03:59:00,
2013-01-20 23:16:00,23.5,13.1,30.22,WNW,292,8.5,8.5,64,0.00,,,0.00,WUHU21623XXSP,2013-01-21 04:16:00,
2013-01-20 23:21:00,23.5,13.1,30.22,West,270,2.9,9.4,64,0.00,,,0.00,WUHU21623XXSP,2013-01-21 04:21:00,
2013-01-20 23:26:00,23.5,13.1,30.22,WNW,292,6.7,9.4,64,0.00,,,0.00,WUHU21623XXSP,2013-01-21 04:26:00,
2013-01-20 23:31:00,23.5,13.1,30.22,West,270,5.8,6.7,64,0.00,,,0.00,WUHU21623XXSP,2013-01-21 04:31:00,
2013-01-20 23:36:00,23.5,13.1,30.22,West,270,6.3,6.5,64,0.00,,,0.00,WUHU21623XXSP,2013-01-21 04:36:00,
2013-01-20 23:41:00,23.4,12.9,30.22,NW,315,6.9,6.9,64,0.00,,,0.00,WUHU21623XXSP,2013-01-21 04:41:00,
2013-01-20 23:46:00,23.4,12.9,30.22,WNW,292,6.3,6.9,64,0.00,,,0.00,WUHU21623XXSP,2013-01-21 04:46:00,
2013-01-20 23:51:00,23.4,12.9,30.21,WNW,292,5.8,6.3,64,0.00,,,0.00,WUHU21623XXSP,2013-01-21 04:51:00,
2013-01-20 23:56:00,23.2,12.7,30.21,WNW,292,6.9,6.9,64,0.00,,,0.00,WUHU21623XXSP,2013-01-21 04:56:00,